createdAt,value
2023-03-06T00:02:00.942Z,2.32
2023-03-06T00:06:04.798Z,2.29
2023-03-06T00:10:05.574Z,2.38
2023-03-06T00:14:06.152Z,2.32
2023-03-06T00:18:08.444Z,2.36
2023-03-06T00:22:16.606Z,2.32
2023-03-06T00:26:17.093Z,2.34
2023-03-06T00:30:21.561Z,2.31
2023-03-06T00:34:22.085Z,2.33
2023-03-06T00:38:27.752Z,2.33
2023-03-06T00:42:32.772Z,2.26
2023-03-06T00:46:33.445Z,2.13
2023-03-06T00:50:35.283Z,2.16
2023-03-06T00:54:38.518Z,2.21
2023-03-06T00:58:39.824Z,2.14
2023-03-06T01:02:40.440Z,2.13
2023-03-06T01:06:41.096Z,2.08
2023-03-06T01:10:44.771Z,2.19
2023-03-06T01:14:45.658Z,2.23
2023-03-06T01:18:46.220Z,2.18
2023-03-06T01:22:46.921Z,2.18
2023-03-06T01:26:50.313Z,2.20
2023-03-06T01:30:50.776Z,2.22
2023-03-06T01:34:52.013Z,2.20
2023-03-06T01:38:52.607Z,2.18
2023-03-06T01:42:55.804Z,2.11
2023-03-06T01:46:56.768Z,2.16
2023-03-06T01:50:58.397Z,2.16
2023-03-06T01:55:04.717Z,2.08
2023-03-06T01:59:10.199Z,2.20
2023-03-06T02:03:17.475Z,2.13
2023-03-06T02:07:22.661Z,2.17
2023-03-06T02:11:25.920Z,2.11
2023-03-06T02:15:31.087Z,2.17
2023-03-06T02:19:48.097Z,2.20
2023-03-06T02:24:04.571Z,2.13
2023-03-06T02:28:12.134Z,2.09
2023-03-06T02:32:13.782Z,2.09
2023-03-06T02:36:19.138Z,2.05
2023-03-06T02:40:23.869Z,1.96
2023-03-06T02:44:30.702Z,1.99
2023-03-06T02:48:32.252Z,2.01
2023-03-06T02:52:33.790Z,2.06
2023-03-06T02:56:35.882Z,2.03
2023-03-06T03:00:40.230Z,2.05
2023-03-06T03:04:43.023Z,2.11
2023-03-06T03:08:44.267Z,2.09
2023-03-06T03:12:46.392Z,2.02
2023-03-06T03:16:50.579Z,2.01
2023-03-06T03:20:51.246Z,1.93
2023-03-06T03:24:52.128Z,1.98
2023-03-06T03:28:52.987Z,1.95
2023-03-06T03:32:57.890Z,1.90
2023-03-06T03:36:59.374Z,1.87
2023-03-06T03:41:01.319Z,1.84
2023-03-06T03:45:02.108Z,1.76
2023-03-06T03:49:06.183Z,1.67
2023-03-06T03:53:07.130Z,1.58
2023-03-06T03:57:08.503Z,1.47
2023-03-06T04:01:13.108Z,1.37
2023-03-06T04:05:18.977Z,1.29
2023-03-06T04:09:20.555Z,1.26
2023-03-06T04:13:22.490Z,1.24
2023-03-06T04:17:23.614Z,1.25
2023-03-06T04:21:28.502Z,1.06
2023-03-06T04:25:28.998Z,1.19
2023-03-06T04:29:29.490Z,1.21
2023-03-06T04:33:30.670Z,1.21
2023-03-06T04:37:35.287Z,1.21
2023-03-06T04:41:38.185Z,1.22
2023-03-06T04:45:39.209Z,1.24
2023-03-06T04:49:40.068Z,1.22
2023-03-06T04:53:43.138Z,1.25
2023-03-06T04:57:46.404Z,1.26
2023-03-06T05:01:47.026Z,1.21
2023-03-06T05:05:47.880Z,1.32
2023-03-06T05:09:51.328Z,1.56
2023-03-06T05:13:52.654Z,1.61
2023-03-06T05:17:53.058Z,1.61
2023-03-06T05:21:53.674Z,1.61
2023-03-06T05:25:57.176Z,1.58
2023-03-06T05:29:58.380Z,1.57
2023-03-06T05:34:00.865Z,1.50
2023-03-06T05:38:01.205Z,1.37
2023-03-06T05:42:04.605Z,1.45
2023-03-06T05:46:06.548Z,1.48
2023-03-06T05:50:10.610Z,1.51
2023-03-06T05:54:11.515Z,1.54
2023-03-06T05:58:14.604Z,1.63
2023-03-06T06:02:15.371Z,1.64
2023-03-06T06:06:17.969Z,1.72
2023-03-06T06:10:18.361Z,1.72
2023-03-06T06:14:21.379Z,1.75
2023-03-06T06:18:21.980Z,1.85
2023-03-06T06:22:22.412Z,1.96
2023-03-06T06:26:23.026Z,1.99
2023-03-06T06:30:27.702Z,2.12
2023-03-06T06:34:28.671Z,2.36
2023-03-06T06:38:29.274Z,2.49
2023-03-06T06:42:36.313Z,2.55
2023-03-06T06:51:05.834Z,2.72
2023-03-06T06:55:06.414Z,2.84
2023-03-06T06:59:15.987Z,2.96
2023-03-06T07:03:20.105Z,2.97
2023-03-06T07:07:20.815Z,3.00
2023-03-06T07:11:21.870Z,3.21
2023-03-06T07:15:23.030Z,3.39
2023-03-06T07:19:26.441Z,3.66
2023-03-06T07:23:27.891Z,4.06
2023-03-06T07:27:28.579Z,4.46
2023-03-06T07:31:30.933Z,4.76
2023-03-06T07:35:34.104Z,4.77
2023-03-06T07:39:34.337Z,4.74
2023-03-06T07:43:35.307Z,4.36
2023-03-06T07:47:39.935Z,3.99
2023-03-06T07:51:43.123Z,3.96
2023-03-06T07:55:44.678Z,3.92
2023-03-06T07:59:45.227Z,4.08
2023-03-06T08:03:46.470Z,3.95
2023-03-06T08:07:49.627Z,3.92
2023-03-06T08:11:50.229Z,3.95
2023-03-06T08:15:53.835Z,4.19
2023-03-06T08:19:54.481Z,4.23
2023-03-06T08:23:58.122Z,4.44
2023-03-06T08:27:58.426Z,4.60
2023-03-06T08:31:59.157Z,4.81
2023-03-06T08:36:02.290Z,4.40
2023-03-06T08:40:07.129Z,4.14
2023-03-06T08:44:08.465Z,4.30
2023-03-06T08:48:10.771Z,4.11
2023-03-06T08:52:11.487Z,4.39
2023-03-06T08:56:19.575Z,4.69
2023-03-06T09:00:22.221Z,5.04
2023-03-06T09:04:23.094Z,4.98
2023-03-06T09:08:23.393Z,5.18
2023-03-06T09:12:27.236Z,5.20
2023-03-06T09:16:28.927Z,5.25
2023-03-06T09:20:29.432Z,4.81
2023-03-06T09:24:29.780Z,5.15
2023-03-06T09:28:32.797Z,5.30
2023-03-06T09:32:33.244Z,5.42
2023-03-06T09:36:42.896Z,5.17
2023-03-06T09:45:14.927Z,5.17
2023-03-06T09:49:56.308Z,4.90
2023-03-06T09:54:08.473Z,5.42
2023-03-06T09:58:20.117Z,5.51
2023-03-06T10:02:34.481Z,5.55
2023-03-06T10:06:44.300Z,5.75
2023-03-06T10:10:53.953Z,5.52
2023-03-06T10:15:14.594Z,5.53
2023-03-06T10:19:21.159Z,5.75
2023-03-06T10:23:49.932Z,6.03
2023-03-06T10:27:53.311Z,6.21
2023-03-06T10:32:07.154Z,6.50
2023-03-06T10:36:18.550Z,6.90
2023-03-06T10:40:37.811Z,6.66
2023-03-06T10:44:38.333Z,6.25
2023-03-06T10:48:42.342Z,5.91
2023-03-06T10:52:45.910Z,6.07
2023-03-06T10:56:49.149Z,5.78
2023-03-06T11:00:49.930Z,5.44
2023-03-06T11:04:55.919Z,5.52
2023-03-06T11:09:17.664Z,5.81
2023-03-06T11:13:28.065Z,6.14
2023-03-06T11:17:33.513Z,6.59
2023-03-06T11:21:36.038Z,7.21
2023-03-06T11:25:44.505Z,6.87
2023-03-06T11:29:49.146Z,6.90
2023-03-06T11:33:55.695Z,6.52
2023-03-06T11:38:01.042Z,5.64
2023-03-06T11:42:20.163Z,4.81
2023-03-06T11:46:28.525Z,4.32
2023-03-06T11:50:37.621Z,4.22
2023-03-06T11:54:39.199Z,4.33
2023-03-06T11:59:12.449Z,4.81
2023-03-06T12:03:57.902Z,6.03
2023-03-06T12:08:17.327Z,6.59
2023-03-06T12:12:48.691Z,7.41
2023-03-06T12:17:20.577Z,6.24
2023-03-06T12:21:37.052Z,5.77
2023-03-06T12:25:41.820Z,5.40
2023-03-06T12:30:28.438Z,5.03
2023-03-06T12:34:56.078Z,5.21
2023-03-06T12:39:12.055Z,5.42
2023-03-06T12:43:53.815Z,5.51
2023-03-06T12:47:59.552Z,6.14
2023-03-06T12:52:05.268Z,5.98
2023-03-06T12:56:06.980Z,6.09
2023-03-06T13:00:09.482Z,6.26
2023-03-06T13:04:38.563Z,6.14
2023-03-06T13:09:21.134Z,5.37
2023-03-06T13:13:36.122Z,5.44
2023-03-06T13:17:41.987Z,5.35
2023-03-06T13:22:18.221Z,5.73
2023-03-06T13:27:05.984Z,5.69
2023-03-06T13:31:10.614Z,5.64
2023-03-06T13:35:57.829Z,6.24
2023-03-06T13:40:34.296Z,6.38
2023-03-06T13:44:49.186Z,6.12
2023-03-06T13:49:05.386Z,6.72
2023-03-06T13:53:51.049Z,6.66
2023-03-06T13:58:14.551Z,6.33
2023-03-06T14:02:44.632Z,6.29
2023-03-06T14:07:06.534Z,6.38
2023-03-06T14:11:21.485Z,6.33
2023-03-06T14:15:28.439Z,6.53
2023-03-06T14:19:39.543Z,6.05
2023-03-06T14:23:42.719Z,6.02
2023-03-06T14:27:51.676Z,5.79
2023-03-06T14:31:55.949Z,5.56
2023-03-06T14:36:03.820Z,5.55
2023-03-06T14:40:05.241Z,5.19
2023-03-06T14:44:28.160Z,4.74
2023-03-06T14:48:42.150Z,4.63
2023-03-06T14:52:46.024Z,4.58
2023-03-06T14:56:49.482Z,4.29
2023-03-06T15:00:56.770Z,4.45
2023-03-06T15:05:04.576Z,4.64
2023-03-06T15:09:20.497Z,4.84
2023-03-06T15:13:26.241Z,4.77
2023-03-06T15:17:32.254Z,4.50
2023-03-06T15:21:39.985Z,4.03
2023-03-06T15:25:43.453Z,4.10
2023-03-06T15:29:44.003Z,4.10
2023-03-06T15:33:44.450Z,4.16
2023-03-06T15:37:46.042Z,4.14
2023-03-06T15:41:49.276Z,4.12
2023-03-06T15:45:50.854Z,4.11
2023-03-06T15:49:53.392Z,3.89
2023-03-06T15:53:57.208Z,3.65
2023-03-06T15:58:09.247Z,3.55
2023-03-06T16:02:20.449Z,3.59
2023-03-06T16:06:23.615Z,3.51
2023-03-06T16:10:26.869Z,3.51
2023-03-06T16:14:30.397Z,3.70
2023-03-06T16:18:31.759Z,3.67
2023-03-06T16:22:32.028Z,3.71
2023-03-06T16:26:36.782Z,3.76
2023-03-06T16:30:40.245Z,3.86
2023-03-06T16:34:44.360Z,3.90
2023-03-06T16:38:46.484Z,3.87
2023-03-06T16:42:46.955Z,3.82
2023-03-06T16:46:53.446Z,3.76
2023-03-06T16:50:54.528Z,3.73
2023-03-06T16:54:54.844Z,3.78
2023-03-06T16:58:55.435Z,3.81
2023-03-06T17:02:59.083Z,3.71
2023-03-06T17:06:59.853Z,3.73
2023-03-06T17:11:03.439Z,3.69
2023-03-06T17:15:03.796Z,3.67
2023-03-06T17:19:06.989Z,3.61
2023-03-06T17:23:07.546Z,3.48
2023-03-06T17:27:08.155Z,3.62
2023-03-06T17:31:16.911Z,3.52
2023-03-06T17:35:20.258Z,3.60
2023-03-06T17:39:21.078Z,3.62
2023-03-06T17:43:21.814Z,3.50
2023-03-06T17:47:22.610Z,3.65
2023-03-06T17:51:26.118Z,3.53
2023-03-06T17:55:27.414Z,3.70
2023-03-06T17:59:27.935Z,3.62
2023-03-06T18:03:28.900Z,3.61
2023-03-06T18:07:32.280Z,3.73
2023-03-06T18:11:32.857Z,3.61
2023-03-06T18:15:33.242Z,3.81
2023-03-06T18:19:33.975Z,3.85
2023-03-06T18:23:37.291Z,3.85
2023-03-06T18:27:38.411Z,3.55
2023-03-06T18:31:41.179Z,3.26
2023-03-06T18:35:44.276Z,3.55
2023-03-06T18:39:48.068Z,3.45
2023-03-06T18:43:54.193Z,3.67
2023-03-06T18:47:54.569Z,3.81
2023-03-06T18:51:55.046Z,3.46
2023-03-06T18:55:58.480Z,3.45
2023-03-06T18:59:59.460Z,3.39
2023-03-06T19:04:04.751Z,3.42
2023-03-06T19:08:05.220Z,3.57
2023-03-06T19:12:09.481Z,3.41
2023-03-06T19:16:11.755Z,3.48
2023-03-06T19:20:15.828Z,3.48
2023-03-06T19:24:16.628Z,3.51
2023-03-06T19:28:19.914Z,3.25
2023-03-06T19:32:20.396Z,3.32
2023-03-06T19:36:24.497Z,3.39
2023-03-06T19:40:25.054Z,3.40
2023-03-06T19:44:28.222Z,3.68
2023-03-06T19:48:29.052Z,3.58
2023-03-06T19:52:30.802Z,3.50
2023-03-06T19:56:33.805Z,3.49
2023-03-06T20:00:38.221Z,3.51
2023-03-06T20:04:41.232Z,3.46
2023-03-06T20:08:41.889Z,3.54
2023-03-06T20:12:42.556Z,3.42
2023-03-06T20:16:46.133Z,3.55
2023-03-06T20:20:46.640Z,3.10
2023-03-06T20:24:47.110Z,3.23
2023-03-06T20:28:47.630Z,3.41
2023-03-06T20:32:51.714Z,3.21
2023-03-06T20:36:52.106Z,3.17
2023-03-06T20:40:54.814Z,3.18
2023-03-06T20:44:55.203Z,3.20
2023-03-06T20:48:59.653Z,3.10
2023-03-06T20:53:01.034Z,3.10
2023-03-06T20:57:02.306Z,3.15
2023-03-06T21:01:02.904Z,3.18
2023-03-06T21:05:06.820Z,3.01
2023-03-06T21:09:09.955Z,2.97
2023-03-06T21:13:10.617Z,3.22
2023-03-06T21:17:12.290Z,3.28
2023-03-06T21:21:20.715Z,3.27
2023-03-06T21:25:21.650Z,3.32
2023-03-06T21:29:22.064Z,3.35
2023-03-06T21:33:22.748Z,3.43
2023-03-06T21:37:26.307Z,3.37
2023-03-06T21:41:30.658Z,3.32
2023-03-06T21:45:31.459Z,3.25
2023-03-06T21:49:32.098Z,3.12
2023-03-06T21:53:35.249Z,3.31
2023-03-06T21:57:39.266Z,3.25
2023-03-06T22:01:40.287Z,3.48
2023-03-06T22:05:43.403Z,3.33
2023-03-06T22:09:46.768Z,3.37
2023-03-06T22:13:48.536Z,3.39
2023-03-06T22:17:49.933Z,3.19
2023-03-06T22:21:50.315Z,3.27
2023-03-06T22:25:53.585Z,3.38
2023-03-06T22:29:54.022Z,3.34
2023-03-06T22:33:55.540Z,3.36
2023-03-06T22:37:56.234Z,3.35
2023-03-06T22:42:01.402Z,3.26
2023-03-06T22:46:05.193Z,3.31
2023-03-06T22:50:05.943Z,3.18
2023-03-06T22:54:06.499Z,3.29
2023-03-06T22:58:10.027Z,3.28
2023-03-06T23:02:10.877Z,3.39
2023-03-06T23:06:14.596Z,3.36
2023-03-06T23:10:15.248Z,3.32
2023-03-06T23:14:37.266Z,3.42
2023-03-06T23:18:59.629Z,3.22
2023-03-06T23:23:18.623Z,3.34
2023-03-06T23:27:19.732Z,3.19
2023-03-06T23:31:28.598Z,3.28
2023-03-06T23:35:29.447Z,3.20
2023-03-06T23:39:30.592Z,3.12
2023-03-06T23:43:31.746Z,3.24
2023-03-06T23:47:37.940Z,3.26
2023-03-06T23:51:38.286Z,3.21
2023-03-06T23:55:38.791Z,3.19
2023-03-06T23:59:39.662Z,3.15
